Bertha, Alabama
Current Conditions -  °F | °C
As of 3:53 PM on Thursday 23 Oct 2014 (Local Time) from KHEY Reporting Station
Clear Clear  
Wind Chill: 74°   Ceiling: Unl
Heat Index: 74°   Visibility: 10mi
Dew Point: 43°   Wind: 7mph
Humidity: 33%   Direction: 350°N
Pressure: 30.02"   Gusts: NA
Location:  31.5608°N, 85.5447°W
Report Text: KHEY 232053Z AUTO 35006KT 10SM CLR 23/06 A3002 RMK AO2 SLP052 T02330061 56019
Loading
Personal Weather Stations






























Interactive Weather Map
Tropical Storm Tracking
New forecast layout! Learn more

10-Day Weather Forecast

Advertisements
Track Severe Weather on mobile